Time;durP1;ratioP1;P1;durP2;ratioP2;P2;SDS_P1;SDS_P2;PMS_P1;PMS_P2;Temp;Humidity;BMP_temperature;BMP_pressure;BME280_temperature;BME280_humidity;BME280_pressure;Samples;Min_cycle;Max_cycle;Signal;HPM_P1;HPM_P2
2021/09/19 00:00:47;;;;;;;5.93;4.03;;;13.30;99.90;;;;;;4991841;28;20242;-60
2021/09/19 00:03:16;;;;;;;5.17;4.20;;;13.40;99.90;;;;;;4985122;28;20246;-61
2021/09/19 00:05:44;;;;;;;5.97;4.30;;;13.30;99.90;;;;;;4990886;28;20239;-61
2021/09/19 00:08:12;;;;;;;5.77;4.00;;;13.40;99.90;;;;;;4990268;28;20318;-61
2021/09/19 00:10:40;;;;;;;6.13;4.50;;;13.40;99.90;;;;;;4998845;28;20343;-60
2021/09/19 00:13:09;;;;;;;7.13;4.10;;;13.50;99.90;;;;;;4991896;28;20324;-61
2021/09/19 00:15:38;;;;;;;6.90;4.20;;;13.50;99.90;;;;;;4991375;28;20249;-60
2021/09/19 00:18:06;;;;;;;4.83;4.33;;;13.50;99.90;;;;;;4996757;28;20237;-61
2021/09/19 00:20:35;;;;;;;7.13;4.50;;;13.40;99.90;;;;;;4994124;28;20269;-60
2021/09/19 00:23:03;;;;;;;5.53;4.37;;;13.30;99.90;;;;;;5002903;28;20704;-62
2021/09/19 00:25:31;;;;;;;6.23;4.20;;;13.30;99.90;;;;;;4980715;28;20629;-60
2021/09/19 00:27:59;;;;;;;8.40;4.17;;;13.30;99.90;;;;;;4989323;28;20344;-60
2021/09/19 00:30:28;;;;;;;6.73;4.50;;;13.20;99.90;;;;;;4990879;28;20366;-61
2021/09/19 00:32:59;;;;;;;6.20;4.03;;;13.20;99.90;;;;;;4995655;28;20307;-60
2021/09/19 00:35:27;;;;;;;4.80;4.07;;;13.20;99.90;;;;;;4995674;28;20331;-62
2021/09/19 00:37:55;;;;;;;6.07;4.70;;;13.10;99.90;;;;;;4996669;28;20709;-61
2021/09/19 00:40:24;;;;;;;7.60;4.33;;;13.10;99.90;;;;;;5001668;28;20769;-62
2021/09/19 00:42:52;;;;;;;5.70;4.30;;;13.00;99.90;;;;;;4991502;28;20240;-60
2021/09/19 00:45:23;;;;;;;7.03;4.23;;;12.90;99.90;;;;;;4989774;28;20267;-61
2021/09/19 00:47:51;;;;;;;5.00;4.03;;;13.00;99.90;;;;;;4993787;28;20332;-61
2021/09/19 00:50:24;;;;;;;4.57;3.57;;;13.10;99.90;;;;;;4994278;28;20233;-62
2021/09/19 00:52:53;;;;;;;5.47;4.13;;;13.10;99.90;;;;;;4993645;28;20349;-61
2021/09/19 00:55:22;;;;;;;6.53;4.20;;;13.10;99.90;;;;;;4990497;28;20238;-61
2021/09/19 00:57:52;;;;;;;5.13;3.30;;;13.10;99.90;;;;;;4990715;28;20345;-61
2021/09/19 01:00:23;;;;;;;5.40;3.80;;;13.10;99.90;;;;;;4995213;28;20265;-62
2021/09/19 01:02:53;;;;;;;9.07;4.63;;;13.10;99.90;;;;;;4993518;28;20796;-62
2021/09/19 01:05:24;;;;;;;4.17;3.40;;;13.10;99.90;;;;;;4998187;28;20237;-62
2021/09/19 01:07:52;;;;;;;5.17;4.07;;;13.10;99.90;;;;;;4991217;28;20670;-61
2021/09/19 01:10:23;;;;;;;6.30;4.03;;;13.00;99.90;;;;;;4990742;28;20238;-61
2021/09/19 01:12:53;;;;;;;5.50;4.33;;;13.00;99.90;;;;;;4983592;28;20245;-61
2021/09/19 01:15:22;;;;;;;6.03;3.87;;;13.00;99.90;;;;;;4986967;28;20241;-61
2021/09/19 01:17:52;;;;;;;5.43;4.43;;;13.00;99.90;;;;;;4996133;28;20243;-60
2021/09/19 01:20:20;;;;;;;6.33;4.50;;;12.90;99.90;;;;;;4993498;28;20236;-61
2021/09/19 01:23:00;;;;;;;6.27;4.50;;;12.80;99.90;;;;;;4986243;28;20329;-61
2021/09/19 01:25:29;;;;;;;7.40;4.63;;;12.90;99.90;;;;;;4977653;28;20607;-61
2021/09/19 01:27:57;;;;;;;7.30;3.97;;;12.90;99.90;;;;;;5001390;28;20236;-62
2021/09/19 01:30:26;;;;;;;6.33;4.10;;;12.90;99.90;;;;;;4985678;28;20566;-62
2021/09/19 01:32:54;;;;;;;6.67;4.43;;;12.90;99.90;;;;;;4993356;28;20225;-62
2021/09/19 01:35:22;;;;;;;5.57;4.20;;;12.90;99.90;;;;;;4992857;28;20682;-62
2021/09/19 01:37:50;;;;;;;4.43;3.87;;;13.10;99.90;;;;;;4995980;28;20244;-61
2021/09/19 01:40:18;;;;;;;5.33;4.07;;;13.00;99.90;;;;;;4994426;28;20245;-62
2021/09/19 01:42:48;;;;;;;6.17;3.93;;;13.00;99.90;;;;;;4990048;28;20274;-61
2021/09/19 01:45:16;;;;;;;5.83;4.23;;;13.10;99.90;;;;;;4990767;28;20245;-62
2021/09/19 01:47:44;;;;;;;5.00;3.73;;;13.00;99.90;;;;;;4997390;28;20234;-61
2021/09/19 01:50:13;;;;;;;7.10;3.90;;;12.90;99.90;;;;;;4992504;28;20240;-61
2021/09/19 01:52:41;;;;;;;4.40;3.77;;;12.80;99.90;;;;;;4993032;28;20230;-61
2021/09/19 01:55:09;;;;;;;4.17;3.77;;;12.60;99.90;;;;;;4994476;28;20240;-62
2021/09/19 01:57:38;;;;;;;6.83;3.80;;;12.60;99.90;;;;;;4994483;28;20392;-62
2021/09/19 02:00:12;;;;;;;6.50;3.83;;;12.50;99.90;;;;;;4996305;28;20626;-62
2021/09/19 02:02:40;;;;;;;4.43;3.80;;;12.50;99.90;;;;;;4997038;28;20244;-61
2021/09/19 02:05:10;;;;;;;6.93;3.90;;;12.50;99.90;;;;;;4994246;28;20313;-61
2021/09/19 02:07:40;;;;;;;7.57;3.83;;;12.40;99.90;;;;;;4998921;28;20319;-61
2021/09/19 02:10:12;;;;;;;5.93;4.10;;;12.50;99.90;;;;;;4993284;28;20252;-62
2021/09/19 02:12:42;;;;;;;6.83;3.80;;;12.40;99.90;;;;;;4992878;28;20237;-62
2021/09/19 02:15:13;;;;;;;7.47;4.30;;;12.40;99.90;;;;;;4995918;28;20242;-61
2021/09/19 02:17:42;;;;;;;5.63;3.80;;;12.40;99.90;;;;;;4997996;28;20327;-62
2021/09/19 02:20:12;;;;;;;6.73;4.50;;;12.40;99.90;;;;;;5000202;28;20243;-61
2021/09/19 02:22:41;;;;;;;5.53;3.90;;;12.30;99.90;;;;;;4993547;28;20778;-62
2021/09/19 02:25:10;;;;;;;5.67;4.07;;;12.30;99.90;;;;;;4992165;28;20248;-62
2021/09/19 02:27:38;;;;;;;6.20;4.23;;;12.30;99.90;;;;;;4997615;28;20275;-61
2021/09/19 02:30:09;;;;;;;6.40;4.07;;;12.30;99.90;;;;;;4993802;28;20236;-61
2021/09/19 02:32:40;;;;;;;5.20;3.87;;;12.30;99.90;;;;;;4998373;28;20245;-60
2021/09/19 02:35:09;;;;;;;4.60;3.93;;;12.20;99.90;;;;;;4988638;28;20243;-61
2021/09/19 02:37:38;;;;;;;4.80;3.37;;;12.20;99.90;;;;;;4990792;28;20598;-62
2021/09/19 02:40:09;;;;;;;5.27;3.87;;;12.10;99.90;;;;;;4995292;28;20720;-61
2021/09/19 02:42:38;;;;;;;3.67;3.10;;;12.10;99.90;;;;;;4991040;28;20252;-61
2021/09/19 02:45:08;;;;;;;7.73;4.13;;;12.00;99.90;;;;;;4995110;28;20704;-61
2021/09/19 02:47:36;;;;;;;7.67;3.70;;;12.00;99.90;;;;;;4995978;28;20316;-62
2021/09/19 02:50:09;;;;;;;5.43;3.33;;;12.00;99.90;;;;;;4996464;28;20298;-61
2021/09/19 02:52:37;;;;;;;8.03;3.53;;;12.00;99.90;;;;;;4997040;28;20264;-61
2021/09/19 02:55:07;;;;;;;3.87;3.47;;;12.00;99.90;;;;;;4991096;28;20242;-61
2021/09/19 02:57:35;;;;;;;9.33;3.63;;;11.90;99.90;;;;;;4989547;28;20249;-62
2021/09/19 03:00:05;;;;;;;4.63;3.50;;;11.90;99.90;;;;;;4994485;28;20610;-62
2021/09/19 03:02:36;;;;;;;4.17;3.57;;;11.90;99.90;;;;;;4988531;28;20323;-60
2021/09/19 03:05:05;;;;;;;4.13;3.50;;;11.90;99.90;;;;;;4995840;28;20640;-62
2021/09/19 03:07:34;;;;;;;4.83;3.93;;;11.80;99.90;;;;;;4997990;28;20241;-61
2021/09/19 03:10:05;;;;;;;5.80;3.90;;;11.80;99.90;;;;;;4992470;28;20242;-62
2021/09/19 03:12:33;;;;;;;7.13;3.87;;;11.80;99.90;;;;;;4988641;28;20265;-62
2021/09/19 03:15:01;;;;;;;6.10;4.23;;;11.80;99.90;;;;;;5001228;28;20232;-60
2021/09/19 03:17:30;;;;;;;5.60;3.97;;;11.70;99.90;;;;;;4999032;28;21055;-61
2021/09/19 03:19:59;;;;;;;5.27;3.87;;;11.70;99.90;;;;;;4994898;28;20724;-61
2021/09/19 03:22:27;;;;;;;6.53;3.83;;;11.70;99.90;;;;;;4991811;28;20697;-61
2021/09/19 03:24:57;;;;;;;5.63;3.60;;;11.70;99.90;;;;;;4989185;28;20239;-62
2021/09/19 03:27:25;;;;;;;4.60;3.40;;;11.60;99.90;;;;;;5000193;28;20234;-62
2021/09/19 03:29:53;;;;;;;3.80;3.40;;;11.70;99.90;;;;;;4991641;28;20298;-62
2021/09/19 03:32:21;;;;;;;5.30;4.10;;;11.60;99.90;;;;;;4997830;28;20237;-62
2021/09/19 03:34:49;;;;;;;5.43;3.70;;;11.60;99.90;;;;;;4994128;28;20708;-62
2021/09/19 03:37:17;;;;;;;6.00;3.57;;;11.60;99.90;;;;;;4990875;28;20608;-62
2021/09/19 03:39:45;;;;;;;5.17;3.50;;;11.60;99.90;;;;;;4991997;28;20251;-61
2021/09/19 03:42:15;;;;;;;4.67;3.73;;;11.50;99.90;;;;;;4987696;28;20665;-61
2021/09/19 03:44:43;;;;;;;4.67;4.00;;;11.50;99.90;;;;;;5001352;28;20248;-60
2021/09/19 03:47:11;;;;;;;4.63;3.97;;;11.50;99.90;;;;;;4997526;28;20237;-61
2021/09/19 03:49:39;;;;;;;5.17;3.10;;;11.50;99.90;;;;;;4991365;28;20261;-60
2021/09/19 03:52:07;;;;;;;4.27;3.60;;;11.50;99.90;;;;;;5004576;28;20268;-60
2021/09/19 03:54:35;;;;;;;3.40;2.93;;;11.50;99.90;;;;;;4992358;28;20241;-60
2021/09/19 03:57:03;;;;;;;4.20;3.10;;;11.40;99.90;;;;;;5004947;28;20397;-62
2021/09/19 03:59:33;;;;;;;3.07;2.67;;;11.40;99.90;;;;;;4988299;28;20270;-62
2021/09/19 04:02:01;;;;;;;4.03;2.90;;;11.40;99.90;;;;;;5000564;28;20252;-61
2021/09/19 04:04:30;;;;;;;5.07;3.00;;;11.50;99.90;;;;;;4989084;28;20311;-60
2021/09/19 04:06:58;;;;;;;4.57;3.57;;;11.50;99.90;;;;;;5005020;28;20248;-62
2021/09/19 04:09:26;;;;;;;3.67;3.20;;;11.50;99.90;;;;;;4996598;28;20247;-61
2021/09/19 04:11:56;;;;;;;5.37;4.20;;;11.50;99.90;;;;;;4992262;28;20328;-61
2021/09/19 04:14:24;;;;;;;5.63;3.70;;;11.50;99.90;;;;;;4990970;28;20282;-63
2021/09/19 04:16:53;;;;;;;5.57;3.70;;;11.60;99.90;;;;;;4992757;28;20616;-62
2021/09/19 04:19:22;;;;;;;5.53;3.90;;;11.60;99.90;;;;;;4989719;28;20362;-60
2021/09/19 04:21:50;;;;;;;4.67;3.57;;;11.60;99.90;;;;;;4997349;28;20241;-61
2021/09/19 04:24:18;;;;;;;8.53;3.83;;;11.60;99.90;;;;;;4997119;28;20803;-61
2021/09/19 04:26:46;;;;;;;5.20;3.77;;;11.60;99.90;;;;;;4986791;28;20629;-61
2021/09/19 04:29:14;;;;;;;6.50;3.97;;;11.70;99.90;;;;;;4990386;28;20342;-62
2021/09/19 04:31:42;;;;;;;5.53;3.43;;;11.60;99.90;;;;;;4992239;28;20233;-61
2021/09/19 04:34:12;;;;;;;6.43;4.23;;;11.60;99.90;;;;;;5000062;28;20760;-61
2021/09/19 04:36:41;;;;;;;5.43;3.60;;;11.70;99.90;;;;;;4998208;28;20317;-62
2021/09/19 04:39:09;;;;;;;3.90;3.40;;;11.60;99.90;;;;;;4991292;28;20243;-61
2021/09/19 04:41:37;;;;;;;5.90;3.20;;;11.60;99.90;;;;;;4994457;28;20237;-60
2021/09/19 04:44:05;;;;;;;4.37;3.50;;;11.70;99.90;;;;;;4990733;28;20237;-61
2021/09/19 04:46:33;;;;;;;6.87;3.80;;;11.70;99.90;;;;;;4993165;28;20232;-61
2021/09/19 04:49:01;;;;;;;5.77;3.90;;;11.70;99.90;;;;;;4997319;28;20273;-61
2021/09/19 04:51:31;;;;;;;5.33;4.27;;;11.70;99.90;;;;;;4993908;28;20244;-60
2021/09/19 04:53:59;;;;;;;4.80;4.10;;;11.80;99.90;;;;;;4992157;28;20248;-62
2021/09/19 04:56:28;;;;;;;7.00;4.30;;;11.80;99.90;;;;;;4991710;28;20607;-63
2021/09/19 04:58:56;;;;;;;6.63;4.70;;;11.80;99.90;;;;;;4983121;28;20240;-62
2021/09/19 05:01:24;;;;;;;5.63;4.70;;;11.90;99.90;;;;;;4986492;28;20324;-61
2021/09/19 05:03:52;;;;;;;10.50;5.13;;;11.90;99.90;;;;;;4993219;28;20720;-60
2021/09/19 05:06:21;;;;;;;8.00;5.23;;;11.90;99.90;;;;;;4990536;28;20236;-61
2021/09/19 05:08:50;;;;;;;7.63;4.77;;;11.90;99.90;;;;;;4988469;28;20259;-61
2021/09/19 05:11:18;;;;;;;6.67;4.63;;;11.90;99.90;;;;;;4993953;28;20287;-61
2021/09/19 05:13:46;;;;;;;7.50;4.50;;;11.90;99.90;;;;;;4994672;28;20352;-61
2021/09/19 05:16:14;;;;;;;7.70;5.03;;;12.00;99.90;;;;;;4995493;28;20237;-61
2021/09/19 05:18:42;;;;;;;8.83;5.17;;;12.00;99.90;;;;;;4993603;28;20245;-61
2021/09/19 05:21:11;;;;;;;5.93;4.77;;;12.10;99.90;;;;;;4995152;28;20240;-61
2021/09/19 05:23:39;;;;;;;7.17;4.70;;;12.10;99.90;;;;;;4989647;28;20325;-60
2021/09/19 05:26:08;;;;;;;6.83;5.00;;;12.20;99.90;;;;;;4991280;28;20261;-60
2021/09/19 05:28:36;;;;;;;6.63;5.00;;;12.10;99.90;;;;;;4995050;28;20245;-61
2021/09/19 05:31:05;;;;;;;5.73;4.50;;;12.10;99.90;;;;;;4996168;28;20240;-61
2021/09/19 05:33:33;;;;;;;6.57;4.67;;;12.10;99.90;;;;;;4986776;28;20331;-62
2021/09/19 05:36:01;;;;;;;6.77;4.33;;;12.10;99.90;;;;;;4982080;28;20268;-62
2021/09/19 05:38:30;;;;;;;6.17;4.50;;;12.00;99.90;;;;;;4988182;28;20241;-61
2021/09/19 05:40:58;;;;;;;5.37;4.13;;;12.00;99.90;;;;;;4992028;28;20232;-61
2021/09/19 05:43:27;;;;;;;5.40;4.40;;;12.00;99.90;;;;;;4990945;28;20687;-62
2021/09/19 05:45:55;;;;;;;5.50;4.10;;;12.00;99.90;;;;;;4995098;28;20737;-62
2021/09/19 05:48:26;;;;;;;4.63;3.80;;;12.00;99.90;;;;;;4992620;28;20320;-62
2021/09/19 05:50:55;;;;;;;5.47;3.97;;;12.10;99.90;;;;;;4985377;28;20227;-61
2021/09/19 05:53:23;;;;;;;5.10;4.17;;;12.10;99.90;;;;;;4984101;28;20269;-61
2021/09/19 05:55:51;;;;;;;5.67;4.37;;;12.20;99.90;;;;;;4989368;28;20238;-62
2021/09/19 05:58:19;;;;;;;5.77;4.40;;;12.20;99.90;;;;;;4984619;28;20240;-61
2021/09/19 06:00:49;;;;;;;6.47;4.03;;;12.20;99.90;;;;;;4984339;28;20325;-61
2021/09/19 06:03:17;;;;;;;5.30;4.37;;;12.30;99.90;;;;;;4979115;28;20243;-62
2021/09/19 06:05:45;;;;;;;6.77;4.60;;;12.30;99.90;;;;;;4988196;28;20738;-61
2021/09/19 06:08:13;;;;;;;5.93;4.13;;;12.40;99.90;;;;;;4989443;28;20249;-60
2021/09/19 06:10:41;;;;;;;6.20;4.17;;;12.50;99.90;;;;;;4989681;28;20247;-63
2021/09/19 06:13:09;;;;;;;9.73;4.60;;;12.50;99.90;;;;;;4983526;28;20247;-60
2021/09/19 06:15:39;;;;;;;6.33;4.30;;;12.50;99.90;;;;;;5012846;28;20240;-62
2021/09/19 06:18:09;;;;;;;6.10;4.60;;;12.50;99.90;;;;;;4988663;28;20244;-60
2021/09/19 06:20:38;;;;;;;5.90;4.20;;;12.50;99.90;;;;;;4982803;28;20249;-61
2021/09/19 06:23:06;;;;;;;4.90;4.30;;;12.40;99.90;;;;;;4982357;28;20264;-62
2021/09/19 06:25:34;;;;;;;4.40;3.93;;;12.50;99.90;;;;;;4984239;28;20269;-61
2021/09/19 06:28:02;;;;;;;5.10;4.10;;;12.50;99.90;;;;;;4991943;28;20591;-60
2021/09/19 06:30:31;;;;;;;7.33;4.17;;;12.60;99.90;;;;;;4985780;28;20232;-61
2021/09/19 06:32:59;;;;;;;4.43;3.70;;;12.50;99.90;;;;;;4993661;28;20245;-61
2021/09/19 06:35:28;;;;;;;5.40;3.93;;;12.50;99.90;;;;;;4988722;28;20233;-61
2021/09/19 06:37:56;;;;;;;6.00;4.20;;;12.60;99.90;;;;;;4983020;28;20311;-61
2021/09/19 06:40:25;;;;;;;5.90;4.10;;;12.60;99.90;;;;;;4988567;28;20241;-61
2021/09/19 06:42:53;;;;;;;5.37;3.93;;;12.60;99.90;;;;;;4982014;28;20657;-60
2021/09/19 06:45:21;;;;;;;6.20;4.53;;;12.60;99.90;;;;;;4986331;28;20658;-60
2021/09/19 06:47:49;;;;;;;6.27;3.93;;;12.70;99.90;;;;;;4986311;28;20229;-61
2021/09/19 06:50:17;;;;;;;4.30;3.53;;;12.70;99.90;;;;;;4987155;28;20261;-63
2021/09/19 06:52:46;;;;;;;5.60;3.90;;;12.70;99.90;;;;;;4981613;28;20249;-60
2021/09/19 06:55:14;;;;;;;6.33;3.67;;;12.80;99.90;;;;;;4984643;28;20593;-61
2021/09/19 06:57:43;;;;;;;6.07;3.97;;;12.80;99.90;;;;;;4989190;28;20231;-61
2021/09/19 07:00:12;;;;;;;3.97;3.60;;;12.90;99.90;;;;;;4984202;28;20742;-60
2021/09/19 07:02:40;;;;;;;5.47;3.90;;;12.90;99.90;;;;;;4993531;28;20275;-60
2021/09/19 07:05:10;;;;;;;4.73;3.87;;;12.90;99.90;;;;;;4998241;28;20319;-61
2021/09/19 07:07:38;;;;;;;5.57;3.60;;;13.00;99.90;;;;;;4997028;28;20354;-61
2021/09/19 07:10:09;;;;;;;5.57;3.30;;;13.10;99.90;;;;;;4990405;28;20604;-61
2021/09/19 07:12:37;;;;;;;5.60;3.93;;;13.20;99.90;;;;;;4983174;28;20320;-61
2021/09/19 07:15:08;;;;;;;5.17;3.90;;;13.10;99.90;;;;;;4980733;28;20808;-60
2021/09/19 07:17:36;;;;;;;6.27;3.83;;;13.10;99.90;;;;;;4986587;28;20264;-62
2021/09/19 07:20:05;;;;;;;6.83;3.60;;;13.10;99.90;;;;;;4985372;28;20280;-62
2021/09/19 07:22:34;;;;;;;4.30;3.80;;;13.10;99.90;;;;;;4987677;28;20592;-60
2021/09/19 07:25:03;;;;;;;4.87;3.80;;;13.10;99.90;;;;;;4986991;28;20620;-61
2021/09/19 07:27:33;;;;;;;6.40;3.63;;;13.20;99.90;;;;;;4982337;28;20242;-62
2021/09/19 07:30:02;;;;;;;5.33;4.00;;;13.20;99.90;;;;;;4969287;28;20233;-61
2021/09/19 07:32:35;;;;;;;4.17;3.50;;;13.30;99.90;;;;;;4986047;28;20305;-61
2021/09/19 07:35:05;;;;;;;4.13;3.53;;;13.40;99.90;;;;;;4983208;28;20324;-59
2021/09/19 07:37:34;;;;;;;4.97;3.37;;;13.40;99.90;;;;;;4981382;28;20262;-61
2021/09/19 07:40:03;;;;;;;5.03;4.07;;;13.50;99.90;;;;;;4981762;28;20237;-61
2021/09/19 07:42:33;;;;;;;5.13;3.80;;;13.50;99.90;;;;;;4977222;28;20359;-61
2021/09/19 07:45:02;;;;;;;4.80;3.60;;;13.50;99.90;;;;;;4982518;28;20272;-61
2021/09/19 07:47:35;;;;;;;4.83;3.67;;;13.50;99.90;;;;;;4981312;28;20328;-61
2021/09/19 07:50:05;;;;;;;3.90;3.37;;;13.60;99.90;;;;;;4976153;28;20288;-60
2021/09/19 07:52:33;;;;;;;4.47;3.50;;;13.50;99.90;;;;;;4980412;28;20257;-60
2021/09/19 07:55:02;;;;;;;6.27;3.73;;;13.60;99.90;;;;;;4981303;28;20324;-61
2021/09/19 07:57:30;;;;;;;6.00;3.53;;;13.60;99.90;;;;;;4980411;28;20244;-60
2021/09/19 08:00:00;;;;;;;4.80;3.40;;;13.80;99.90;;;;;;4977261;28;20326;-61
2021/09/19 08:02:28;;;;;;;4.33;3.70;;;13.70;99.90;;;;;;4982793;28;20732;-61
2021/09/19 08:04:56;;;;;;;5.63;3.60;;;13.90;99.90;;;;;;4981454;28;20591;-61
2021/09/19 08:07:28;;;;;;;4.33;3.43;;;13.90;99.90;;;;;;4983445;28;20233;-60
2021/09/19 08:09:56;;;;;;;4.20;3.23;;;13.90;99.90;;;;;;4981958;28;20661;-61
2021/09/19 08:12:24;;;;;;;4.33;3.43;;;13.80;99.90;;;;;;4983583;28;20321;-60
2021/09/19 08:14:52;;;;;;;4.17;3.20;;;13.90;99.90;;;;;;4984171;28;20333;-60
2021/09/19 08:17:21;;;;;;;4.13;3.23;;;13.90;99.90;;;;;;4982905;28;20234;-61
2021/09/19 08:19:49;;;;;;;8.27;4.00;;;13.90;99.90;;;;;;4983421;28;20242;-60
2021/09/19 08:22:17;;;;;;;5.70;3.73;;;14.00;99.90;;;;;;4980998;28;20234;-61
2021/09/19 08:24:46;;;;;;;3.83;3.23;;;14.00;99.90;;;;;;4981535;28;20313;-61
2021/09/19 08:27:14;;;;;;;3.87;2.87;;;14.10;99.90;;;;;;4983011;28;20233;-60
2021/09/19 08:29:42;;;;;;;3.80;3.50;;;14.30;99.90;;;;;;4980693;28;20553;-61
2021/09/19 08:32:10;;;;;;;3.63;3.10;;;14.40;99.90;;;;;;4984198;28;20236;-61
2021/09/19 08:34:42;;;;;;;4.77;3.30;;;14.50;99.90;;;;;;4983536;28;20246;-59
2021/09/19 08:37:11;;;;;;;5.27;3.30;;;14.60;99.90;;;;;;4986043;28;20272;-60
2021/09/19 08:39:39;;;;;;;4.47;3.17;;;14.60;99.90;;;;;;4979127;28;20520;-61
2021/09/19 08:42:07;;;;;;;3.50;3.20;;;14.50;99.90;;;;;;4989776;28;20742;-61
2021/09/19 08:44:35;;;;;;;5.13;3.47;;;14.60;99.90;;;;;;4983825;28;20598;-61
2021/09/19 08:47:03;;;;;;;4.30;3.20;;;14.70;99.90;;;;;;4981493;28;20296;-62
2021/09/19 08:49:32;;;;;;;4.03;3.43;;;14.70;99.90;;;;;;4974508;28;20253;-61
2021/09/19 08:52:01;;;;;;;4.53;3.30;;;14.90;99.90;;;;;;4981368;28;20245;-60
2021/09/19 08:54:34;;;;;;;6.87;4.60;;;15.00;99.90;;;;;;4972349;28;20260;-59
2021/09/19 08:57:03;;;;;;;7.80;3.33;;;15.40;99.90;;;;;;4986163;28;20253;-61
2021/09/19 08:59:50;;;;;;;4.90;3.60;;;15.50;99.90;;;;;;4981783;28;20269;-60
2021/09/19 09:02:20;;;;;;;5.20;3.70;;;15.70;99.90;;;;;;4983693;28;20256;-61
2021/09/19 09:04:54;;;;;;;3.00;2.70;;;15.70;99.90;;;;;;4992596;28;20245;-59
2021/09/19 09:07:25;;;;;;;3.27;2.80;;;15.70;99.90;;;;;;4988384;28;20261;-60
2021/09/19 09:09:56;;;;;;;5.53;3.10;;;15.40;99.90;;;;;;4991496;28;20299;-61
2021/09/19 09:12:25;;;;;;;3.37;3.07;;;15.30;99.90;;;;;;4988323;28;20244;-61
2021/09/19 09:14:57;;;;;;;4.40;3.03;;;15.40;99.90;;;;;;4981880;28;20247;-60
2021/09/19 09:17:29;;;;;;;3.97;3.07;;;15.40;99.90;;;;;;4983792;28;20237;-60
2021/09/19 09:20:01;;;;;;;4.73;2.90;;;15.30;99.90;;;;;;4990854;28;20655;-61
2021/09/19 09:22:34;;;;;;;4.97;2.63;;;15.40;99.90;;;;;;4981109;28;20320;-60
2021/09/19 09:25:10;;;;;;;3.80;3.13;;;15.60;99.90;;;;;;4991689;28;20732;-62
2021/09/19 09:27:40;;;;;;;3.07;2.77;;;15.80;99.90;;;;;;4990807;28;20329;-60
2021/09/19 09:30:16;;;;;;;3.80;2.70;;;16.00;99.90;;;;;;4986585;28;20321;-60
2021/09/19 09:32:59;;;;;;;4.40;2.90;;;16.10;99.90;;;;;;4980186;28;20237;-61
2021/09/19 09:35:33;;;;;;;3.10;2.73;;;16.20;99.90;;;;;;4984798;28;20609;-60
2021/09/19 09:38:17;;;;;;;3.13;2.67;;;16.30;99.90;;;;;;4977279;28;20320;-60
2021/09/19 09:40:45;;;;;;;3.67;2.47;;;16.40;99.90;;;;;;4977839;28;20277;-60
2021/09/19 09:43:15;;;;;;;4.30;2.90;;;16.60;99.90;;;;;;4983320;28;20239;-60
2021/09/19 09:45:44;;;;;;;3.87;2.57;;;16.60;99.90;;;;;;4981851;28;20241;-61
2021/09/19 09:48:27;;;;;;;3.23;2.40;;;16.70;99.90;;;;;;4983514;28;20603;-61
2021/09/19 09:50:57;;;;;;;3.50;2.40;;;16.80;99.90;;;;;;4985558;28;20646;-60
2021/09/19 09:53:28;;;;;;;6.67;2.50;;;16.90;99.90;;;;;;4982075;28;20292;-59
2021/09/19 09:55:59;;;;;;;4.50;2.70;;;16.90;99.90;;;;;;4988525;28;20260;-60
2021/09/19 09:58:40;;;;;;;3.11;2.31;;;17.00;99.90;;;;;;3403101;28;10021513;-60
2021/09/19 10:01:08;;;;;;;2.63;2.40;;;17.10;99.90;;;;;;2922088;28;10002051;-60
2021/09/19 10:03:37;;;;;;;3.27;2.17;;;17.30;99.90;;;;;;4978759;28;20479;-60
2021/09/19 10:06:05;;;;;;;2.93;2.60;;;17.40;99.90;;;;;;4985673;28;20652;-60
2021/09/19 10:08:51;;;;;;;4.43;2.40;;;17.30;99.90;;;;;;4980166;28;20264;-60
2021/09/19 10:11:19;;;;;;;3.07;2.77;;;17.30;99.90;;;;;;4979076;28;20308;-60
2021/09/19 10:13:48;;;;;;;2.50;2.27;;;17.20;99.90;;;;;;4986718;28;20242;-61
2021/09/19 10:16:17;;;;;;;3.83;2.50;;;17.40;99.90;;;;;;4988562;28;20238;-61
2021/09/19 10:18:49;;;;;;;3.60;2.30;;;17.50;99.90;;;;;;4984986;28;20336;-60
2021/09/19 10:21:22;;;;;;;2.70;2.40;;;17.80;99.90;;;;;;4994050;28;20245;-62
2021/09/19 10:23:56;;;;;;;3.03;2.10;;;17.80;99.90;;;;;;4987448;28;20325;-61
2021/09/19 10:26:28;;;;;;;4.07;2.50;;;17.80;99.90;;;;;;4995163;28;20282;-60
2021/09/19 10:28:59;;;;;;;3.93;2.37;;;17.60;99.90;;;;;;4993378;28;20235;-61
2021/09/19 10:31:33;;;;;;;2.07;1.87;;;17.50;99.90;;;;;;4994388;28;20262;-60
2021/09/19 10:34:04;;;;;;;3.53;2.37;;;17.60;99.90;;;;;;4994397;28;20304;-60
2021/09/19 10:36:45;;;;;;;3.87;2.47;;;17.30;99.90;;;;;;5000635;28;20237;-61
2021/09/19 10:39:24;;;;;;;3.67;2.47;;;17.30;99.90;;;;;;4997588;28;20259;-61
2021/09/19 10:42:19;;;;;;;3.20;2.30;;;17.30;99.90;;;;;;4981232;28;20293;-60
2021/09/19 10:44:54;;;;;;;3.30;2.00;;;17.30;99.90;;;;;;4984444;28;20615;-60
2021/09/19 10:47:33;;;;;;;2.67;2.20;;;17.20;99.90;;;;;;4995888;28;20758;-60
2021/09/19 10:50:31;;;;;;;2.97;2.17;;;17.10;99.90;;;;;;4986444;28;20267;-60
2021/09/19 10:53:03;;;;;;;2.33;1.90;;;17.00;99.90;;;;;;4988177;28;20249;-61
2021/09/19 10:55:35;;;;;;;2.97;2.20;;;17.00;99.90;;;;;;4988377;28;20338;-62
2021/09/19 10:58:07;;;;;;;2.30;2.10;;;16.80;99.90;;;;;;4988273;28;20356;-60
2021/09/19 11:00:36;;;;;;;3.77;2.40;;;16.80;99.90;;;;;;4990094;28;20765;-60
2021/09/19 11:03:16;;;;;;;3.97;2.30;;;16.70;99.90;;;;;;4979638;28;20237;-61
2021/09/19 11:05:50;;;;;;;3.00;2.40;;;16.80;99.90;;;;;;4973488;28;20329;-62
2021/09/19 11:08:37;;;;;;;2.27;1.90;;;17.10;99.90;;;;;;4983109;28;20352;-62
2021/09/19 11:11:26;;;;;;;2.70;2.50;;;17.30;99.90;;;;;;4977813;28;20252;-60
2021/09/19 11:14:04;;;;;;;3.23;2.27;;;17.70;99.90;;;;;;4979220;28;20233;-61
2021/09/19 11:16:39;;;;;;;2.57;2.00;;;17.50;99.90;;;;;;4981621;28;20248;-61
2021/09/19 11:19:13;;;;;;;2.63;2.20;;;17.30;99.90;;;;;;4972270;28;20732;-62
2021/09/19 11:21:47;;;;;;;2.77;2.33;;;17.20;99.90;;;;;;4975515;28;20254;-61
2021/09/19 11:24:19;;;;;;;2.23;2.00;;;17.00;99.90;;;;;;4973209;28;20245;-61
2021/09/19 11:26:51;;;;;;;2.73;2.10;;;17.00;99.90;;;;;;4974541;28;20726;-60
2021/09/19 11:29:24;;;;;;;3.30;2.20;;;16.90;99.90;;;;;;4978801;28;20230;-61
2021/09/19 11:31:54;;;;;;;2.60;2.40;;;17.00;99.90;;;;;;4983832;28;20330;-60
2021/09/19 11:34:24;;;;;;;4.20;2.20;;;17.00;99.90;;;;;;4980651;28;20238;-59
2021/09/19 11:36:55;;;;;;;2.53;2.27;;;17.20;99.90;;;;;;4988294;28;20225;-61
2021/09/19 11:39:23;;;;;;;4.03;2.40;;;17.10;99.90;;;;;;4981268;28;20714;-60
2021/09/19 11:41:53;;;;;;;3.23;2.30;;;17.30;99.90;;;;;;4982714;28;20235;-60
2021/09/19 11:44:21;;;;;;;3.33;2.80;;;17.30;99.90;;;;;;4982562;28;20237;-59
2021/09/19 11:46:51;;;;;;;3.30;3.00;;;17.30;99.90;;;;;;4981024;28;20250;-61
2021/09/19 11:49:20;;;;;;;3.70;2.53;;;17.50;99.90;;;;;;4979097;28;20238;-62
2021/09/19 11:51:49;;;;;;;2.37;2.17;;;17.50;99.90;;;;;;4982710;28;20273;-60
2021/09/19 11:54:21;;;;;;;2.83;2.23;;;17.40;99.90;;;;;;4981067;28;20229;-60
2021/09/19 11:56:49;;;;;;;3.87;2.40;;;17.50;99.90;;;;;;4979518;28;20349;-60
2021/09/19 11:59:19;;;;;;;3.10;2.17;;;17.60;99.90;;;;;;4983908;28;20234;-59
2021/09/19 12:01:47;;;;;;;2.60;2.00;;;17.50;99.90;;;;;;4982617;28;20252;-60
2021/09/19 12:04:16;;;;;;;4.47;2.13;;;17.60;99.90;;;;;;4982704;28;20229;-60
2021/09/19 12:06:45;;;;;;;4.63;2.57;;;17.70;99.90;;;;;;4980713;28;20335;-62
2021/09/19 12:09:16;;;;;;;3.50;2.10;;;17.70;99.90;;;;;;4979630;28;20746;-61
2021/09/19 12:11:49;;;;;;;3.33;2.30;;;17.40;99.90;;;;;;4979374;28;20751;-61
2021/09/19 12:14:22;;;;;;;2.97;2.67;;;17.40;99.90;;;;;;4982738;28;20270;-61
2021/09/19 12:16:58;;;;;;;3.70;2.10;;;17.30;99.90;;;;;;4986581;28;20226;-61
2021/09/19 12:19:27;;;;;;;2.70;2.33;;;17.50;99.90;;;;;;4984299;28;20240;-62
2021/09/19 12:21:58;;;;;;;2.90;2.10;;;17.60;99.90;;;;;;4986244;28;20244;-61
2021/09/19 12:24:28;;;;;;;3.00;2.27;;;17.60;99.90;;;;;;4984479;28;20242;-60
2021/09/19 12:27:13;;;;;;;2.53;2.30;;;17.80;99.90;;;;;;4985292;28;20254;-61
2021/09/19 12:29:48;;;;;;;3.40;1.93;;;17.80;99.90;;;;;;4984414;28;20243;-60
2021/09/19 12:32:16;;;;;;;2.90;2.10;;;17.80;99.90;;;;;;4985783;28;21006;-61
2021/09/19 12:34:47;;;;;;;2.47;2.03;;;17.70;99.90;;;;;;4984970;28;20239;-61
2021/09/19 12:37:15;;;;;;;2.10;1.90;;;17.70;99.90;;;;;;4983972;28;20721;-62
2021/09/19 12:39:44;;;;;;;2.93;2.00;;;17.80;99.90;;;;;;4985474;28;20237;-60
2021/09/19 12:42:12;;;;;;;3.37;2.20;;;17.70;99.90;;;;;;4985868;28;20271;-62
2021/09/19 12:44:41;;;;;;;2.17;1.93;;;17.70;99.90;;;;;;4986098;28;20250;-61
2021/09/19 12:47:11;;;;;;;2.40;2.20;;;17.70;99.90;;;;;;4985546;28;20303;-61
2021/09/19 12:49:44;;;;;;;4.00;2.27;;;17.60;99.90;;;;;;4983206;28;20264;-64
2021/09/19 12:52:15;;;;;;;3.33;2.27;;;17.70;99.90;;;;;;4985048;28;20247;-60
2021/09/19 12:54:48;;;;;;;5.80;2.57;;;17.50;99.90;;;;;;4984631;28;20234;-60
2021/09/19 12:57:18;;;;;;;2.90;2.13;;;17.60;99.90;;;;;;4985041;28;20264;-60
2021/09/19 12:59:47;;;;;;;2.97;2.30;;;17.70;99.90;;;;;;4983863;28;20723;-61